sensor_id;sensor_type;location;lat;lon;timestamp;temperature;humidity
22185;DHT22;11258;52.516;13.318;2022-12-07T00:00:49;3.30;99.90
22185;DHT22;11258;52.516;13.318;2022-12-07T00:03:14;3.40;99.90
22185;DHT22;11258;52.516;13.318;2022-12-07T00:05:40;3.30;99.90
22185;DHT22;11258;52.516;13.318;2022-12-07T00:08:06;3.30;99.90
22185;DHT22;11258;52.516;13.318;2022-12-07T00:10:33;3.30;99.90
22185;DHT22;11258;52.516;13.318;2022-12-07T00:12:59;3.30;99.90
22185;DHT22;11258;52.516;13.318;2022-12-07T00:15:25;3.10;99.90
22185;DHT22;11258;52.516;13.318;2022-12-07T00:17:50;3.20;99.90
22185;DHT22;11258;52.516;13.318;2022-12-07T00:20:16;3.20;99.90
22185;DHT22;11258;52.516;13.318;2022-12-07T00:22:42;3.10;99.90
22185;DHT22;11258;52.516;13.318;2022-12-07T00:25:07;3.20;99.90
22185;DHT22;11258;52.516;13.318;2022-12-07T00:27:33;3.10;99.90
22185;DHT22;11258;52.516;13.318;2022-12-07T00:29:58;3.20;99.90
22185;DHT22;11258;52.516;13.318;2022-12-07T00:32:24;3.20;99.90
22185;DHT22;11258;52.516;13.318;2022-12-07T00:34:50;3.10;99.90
22185;DHT22;11258;52.516;13.318;2022-12-07T00:37:15;3.10;99.90
22185;DHT22;11258;52.516;13.318;2022-12-07T00:39:41;3.00;99.90
22185;DHT22;11258;52.516;13.318;2022-12-07T00:42:06;3.00;99.90
22185;DHT22;11258;52.516;13.318;2022-12-07T00:44:32;2.90;99.90
22185;DHT22;11258;52.516;13.318;2022-12-07T00:46:57;2.90;99.90
22185;DHT22;11258;52.516;13.318;2022-12-07T00:49:23;2.90;99.90
22185;DHT22;11258;52.516;13.318;2022-12-07T00:51:49;2.80;99.90
22185;DHT22;11258;52.516;13.318;2022-12-07T00:54:15;2.80;99.90
22185;DHT22;11258;52.516;13.318;2022-12-07T00:56:40;2.70;99.90
22185;DHT22;11258;52.516;13.318;2022-12-07T00:59:06;2.70;99.90
22185;DHT22;11258;52.516;13.318;2022-12-07T01:01:34;2.70;99.90
22185;DHT22;11258;52.516;13.318;2022-12-07T01:04:00;2.70;99.90
22185;DHT22;11258;52.516;13.318;2022-12-07T01:06:29;2.80;99.90
22185;DHT22;11258;52.516;13.318;2022-12-07T01:08:55;2.70;99.90
22185;DHT22;11258;52.516;13.318;2022-12-07T01:11:24;2.70;99.90
22185;DHT22;11258;52.516;13.318;2022-12-07T01:13:51;2.80;99.90
22185;DHT22;11258;52.516;13.318;2022-12-07T01:16:18;2.80;99.90
22185;DHT22;11258;52.516;13.318;2022-12-07T01:18:47;2.90;99.90
22185;DHT22;11258;52.516;13.318;2022-12-07T01:21:18;2.90;99.90
22185;DHT22;11258;52.516;13.318;2022-12-07T01:23:46;2.90;99.90
22185;DHT22;11258;52.516;13.318;2022-12-07T01:26:14;2.90;99.90
22185;DHT22;11258;52.516;13.318;2022-12-07T01:28:40;2.80;99.90
22185;DHT22;11258;52.516;13.318;2022-12-07T01:31:12;2.80;99.90
22185;DHT22;11258;52.516;13.318;2022-12-07T01:33:41;2.80;99.90
22185;DHT22;11258;52.516;13.318;2022-12-07T01:36:16;2.80;99.90
22185;DHT22;11258;52.516;13.318;2022-12-07T01:38:42;2.80;99.90
22185;DHT22;11258;52.516;13.318;2022-12-07T01:41:08;2.90;99.90
22185;DHT22;11258;52.516;13.318;2022-12-07T01:43:34;2.90;99.90
22185;DHT22;11258;52.516;13.318;2022-12-07T01:46:01;3.00;99.90
22185;DHT22;11258;52.516;13.318;2022-12-07T01:48:40;3.00;99.90
22185;DHT22;11258;52.516;13.318;2022-12-07T01:51:12;2.90;99.90
22185;DHT22;11258;52.516;13.318;2022-12-07T01:53:42;3.00;99.90
22185;DHT22;11258;52.516;13.318;2022-12-07T01:56:12;3.00;99.90
22185;DHT22;11258;52.516;13.318;2022-12-07T01:58:41;3.00;99.90
22185;DHT22;11258;52.516;13.318;2022-12-07T02:01:07;3.00;99.90
22185;DHT22;11258;52.516;13.318;2022-12-07T02:03:38;3.00;99.90
22185;DHT22;11258;52.516;13.318;2022-12-07T02:06:05;3.00;99.90
22185;DHT22;11258;52.516;13.318;2022-12-07T02:08:32;3.00;99.90
22185;DHT22;11258;52.516;13.318;2022-12-07T02:10:57;2.90;99.90
22185;DHT22;11258;52.516;13.318;2022-12-07T02:13:25;2.90;99.90
22185;DHT22;11258;52.516;13.318;2022-12-07T02:35:19;2.90;99.90
22185;DHT22;11258;52.516;13.318;2022-12-07T02:40:57;2.80;99.90
22185;DHT22;11258;52.516;13.318;2022-12-07T02:43:28;2.80;99.90
22185;DHT22;11258;52.516;13.318;2022-12-07T02:46:23;2.70;99.90
22185;DHT22;11258;52.516;13.318;2022-12-07T02:48:52;2.80;99.90
22185;DHT22;11258;52.516;13.318;2022-12-07T02:51:19;2.70;99.90
22185;DHT22;11258;52.516;13.318;2022-12-07T02:53:45;2.70;99.90
22185;DHT22;11258;52.516;13.318;2022-12-07T03:04:12;2.70;99.90
22185;DHT22;11258;52.516;13.318;2022-12-07T03:06:49;2.80;99.90
22185;DHT22;11258;52.516;13.318;2022-12-07T03:09:37;2.80;99.90
22185;DHT22;11258;52.516;13.318;2022-12-07T03:12:19;2.90;99.90
22185;DHT22;11258;52.516;13.318;2022-12-07T03:14:55;2.80;99.90
22185;DHT22;11258;52.516;13.318;2022-12-07T03:17:26;2.80;99.90
22185;DHT22;11258;52.516;13.318;2022-12-07T03:19:56;2.80;99.90
22185;DHT22;11258;52.516;13.318;2022-12-07T03:22:23;2.80;99.90
22185;DHT22;11258;52.516;13.318;2022-12-07T03:24:57;2.80;99.90
22185;DHT22;11258;52.516;13.318;2022-12-07T03:27:35;2.80;99.90
22185;DHT22;11258;52.516;13.318;2022-12-07T03:30:06;2.80;99.90
22185;DHT22;11258;52.516;13.318;2022-12-07T03:35:21;2.80;99.90
22185;DHT22;11258;52.516;13.318;2022-12-07T03:37:59;2.90;99.90
22185;DHT22;11258;52.516;13.318;2022-12-07T03:40:33;2.80;99.90
22185;DHT22;11258;52.516;13.318;2022-12-07T03:43:01;2.90;99.90
22185;DHT22;11258;52.516;13.318;2022-12-07T03:46:08;2.90;99.90
22185;DHT22;11258;52.516;13.318;2022-12-07T03:48:40;2.80;99.90
22185;DHT22;11258;52.516;13.318;2022-12-07T03:51:24;2.80;99.90
22185;DHT22;11258;52.516;13.318;2022-12-07T03:53:58;2.90;99.90
22185;DHT22;11258;52.516;13.318;2022-12-07T03:56:25;2.80;99.90
22185;DHT22;11258;52.516;13.318;2022-12-07T03:58:52;2.80;99.90
22185;DHT22;11258;52.516;13.318;2022-12-07T04:01:18;2.80;99.90
22185;DHT22;11258;52.516;13.318;2022-12-07T04:03:44;2.80;99.90
22185;DHT22;11258;52.516;13.318;2022-12-07T04:06:10;2.80;99.90
22185;DHT22;11258;52.516;13.318;2022-12-07T04:08:36;2.80;99.90
22185;DHT22;11258;52.516;13.318;2022-12-07T04:11:02;2.90;99.90
22185;DHT22;11258;52.516;13.318;2022-12-07T04:13:27;2.90;99.90
22185;DHT22;11258;52.516;13.318;2022-12-07T04:15:53;2.90;99.90
22185;DHT22;11258;52.516;13.318;2022-12-07T04:18:18;2.90;99.90
22185;DHT22;11258;52.516;13.318;2022-12-07T04:20:45;2.90;99.90
22185;DHT22;11258;52.516;13.318;2022-12-07T04:23:11;2.90;99.90
22185;DHT22;11258;52.516;13.318;2022-12-07T04:25:37;2.90;99.90
22185;DHT22;11258;52.516;13.318;2022-12-07T04:28:02;2.80;99.90
22185;DHT22;11258;52.516;13.318;2022-12-07T04:30:28;2.90;99.90
22185;DHT22;11258;52.516;13.318;2022-12-07T04:32:54;2.90;99.90
22185;DHT22;11258;52.516;13.318;2022-12-07T04:35:19;2.80;99.90
22185;DHT22;11258;52.516;13.318;2022-12-07T04:37:45;2.90;99.90
22185;DHT22;11258;52.516;13.318;2022-12-07T04:40:11;2.80;99.90
22185;DHT22;11258;52.516;13.318;2022-12-07T04:42:38;2.80;99.90
22185;DHT22;11258;52.516;13.318;2022-12-07T04:45:04;2.80;99.90
22185;DHT22;11258;52.516;13.318;2022-12-07T04:47:30;2.80;99.90
22185;DHT22;11258;52.516;13.318;2022-12-07T04:49:55;2.80;99.90
22185;DHT22;11258;52.516;13.318;2022-12-07T04:52:21;2.80;99.90
22185;DHT22;11258;52.516;13.318;2022-12-07T04:54:46;2.80;99.90
22185;DHT22;11258;52.516;13.318;2022-12-07T04:57:12;2.80;99.90
22185;DHT22;11258;52.516;13.318;2022-12-07T04:59:38;2.80;99.90
22185;DHT22;11258;52.516;13.318;2022-12-07T05:02:03;2.90;99.90
22185;DHT22;11258;52.516;13.318;2022-12-07T05:04:29;2.90;99.90
22185;DHT22;11258;52.516;13.318;2022-12-07T05:06:54;2.90;99.90
22185;DHT22;11258;52.516;13.318;2022-12-07T05:09:20;2.90;99.90
22185;DHT22;11258;52.516;13.318;2022-12-07T05:11:45;3.00;99.90
22185;DHT22;11258;52.516;13.318;2022-12-07T05:14:17;3.00;99.90
22185;DHT22;11258;52.516;13.318;2022-12-07T05:16:44;3.00;99.90
22185;DHT22;11258;52.516;13.318;2022-12-07T05:19:10;3.10;99.90
22185;DHT22;11258;52.516;13.318;2022-12-07T05:21:36;3.10;99.90
22185;DHT22;11258;52.516;13.318;2022-12-07T05:24:03;3.10;99.90
22185;DHT22;11258;52.516;13.318;2022-12-07T05:26:29;3.10;99.90
22185;DHT22;11258;52.516;13.318;2022-12-07T05:28:56;3.10;99.90
22185;DHT22;11258;52.516;13.318;2022-12-07T05:31:22;3.10;99.90
22185;DHT22;11258;52.516;13.318;2022-12-07T05:33:49;3.20;99.90
22185;DHT22;11258;52.516;13.318;2022-12-07T05:36:14;3.10;99.90
22185;DHT22;11258;52.516;13.318;2022-12-07T05:38:40;3.20;99.90
22185;DHT22;11258;52.516;13.318;2022-12-07T05:41:07;3.20;99.90
22185;DHT22;11258;52.516;13.318;2022-12-07T05:43:53;3.20;99.90
22185;DHT22;11258;52.516;13.318;2022-12-07T05:46:18;3.20;99.90
22185;DHT22;11258;52.516;13.318;2022-12-07T05:48:44;3.20;99.90
22185;DHT22;11258;52.516;13.318;2022-12-07T05:51:09;3.20;99.90
22185;DHT22;11258;52.516;13.318;2022-12-07T05:53:35;3.20;99.90
22185;DHT22;11258;52.516;13.318;2022-12-07T05:56:01;3.30;99.90
22185;DHT22;11258;52.516;13.318;2022-12-07T05:58:26;3.30;99.90
22185;DHT22;11258;52.516;13.318;2022-12-07T06:01:10;3.30;99.90
22185;DHT22;11258;52.516;13.318;2022-12-07T06:03:36;3.30;99.90
22185;DHT22;11258;52.516;13.318;2022-12-07T06:06:01;3.30;99.90
22185;DHT22;11258;52.516;13.318;2022-12-07T06:08:27;3.30;99.90
22185;DHT22;11258;52.516;13.318;2022-12-07T06:10:53;3.40;99.90
22185;DHT22;11258;52.516;13.318;2022-12-07T06:13:38;3.40;99.90
22185;DHT22;11258;52.516;13.318;2022-12-07T06:16:04;3.40;99.90
22185;DHT22;11258;52.516;13.318;2022-12-07T06:18:30;3.40;99.90
22185;DHT22;11258;52.516;13.318;2022-12-07T06:20:55;3.40;99.90
22185;DHT22;11258;52.516;13.318;2022-12-07T06:23:21;3.40;99.90
22185;DHT22;11258;52.516;13.318;2022-12-07T06:25:46;3.40;99.90
22185;DHT22;11258;52.516;13.318;2022-12-07T06:28:12;3.40;99.90
22185;DHT22;11258;52.516;13.318;2022-12-07T06:30:37;3.40;99.90
22185;DHT22;11258;52.516;13.318;2022-12-07T06:33:03;3.40;99.90
22185;DHT22;11258;52.516;13.318;2022-12-07T06:35:28;3.40;99.90
22185;DHT22;11258;52.516;13.318;2022-12-07T06:37:54;3.50;99.90
22185;DHT22;11258;52.516;13.318;2022-12-07T06:40:20;3.50;99.90
22185;DHT22;11258;52.516;13.318;2022-12-07T06:42:45;3.50;99.90
22185;DHT22;11258;52.516;13.318;2022-12-07T06:45:11;3.60;99.90
22185;DHT22;11258;52.516;13.318;2022-12-07T06:47:36;3.60;99.90
22185;DHT22;11258;52.516;13.318;2022-12-07T06:50:02;3.60;99.90
22185;DHT22;11258;52.516;13.318;2022-12-07T06:52:28;3.60;99.90
22185;DHT22;11258;52.516;13.318;2022-12-07T06:54:54;3.60;99.90
22185;DHT22;11258;52.516;13.318;2022-12-07T06:57:19;3.60;99.90
22185;DHT22;11258;52.516;13.318;2022-12-07T06:59:45;3.60;99.90
22185;DHT22;11258;52.516;13.318;2022-12-07T07:02:11;3.70;99.90
22185;DHT22;11258;52.516;13.318;2022-12-07T07:04:36;3.70;99.90
22185;DHT22;11258;52.516;13.318;2022-12-07T07:07:02;3.70;99.90
22185;DHT22;11258;52.516;13.318;2022-12-07T07:09:28;3.70;99.90
22185;DHT22;11258;52.516;13.318;2022-12-07T07:11:53;3.70;99.90
22185;DHT22;11258;52.516;13.318;2022-12-07T07:14:19;3.80;99.90
22185;DHT22;11258;52.516;13.318;2022-12-07T07:16:44;3.80;99.90
22185;DHT22;11258;52.516;13.318;2022-12-07T07:19:10;3.80;99.90
22185;DHT22;11258;52.516;13.318;2022-12-07T07:21:36;3.80;99.90
22185;DHT22;11258;52.516;13.318;2022-12-07T07:24:02;3.80;99.90
22185;DHT22;11258;52.516;13.318;2022-12-07T07:26:27;3.80;99.90
22185;DHT22;11258;52.516;13.318;2022-12-07T07:28:53;3.80;99.90
22185;DHT22;11258;52.516;13.318;2022-12-07T07:31:19;3.90;99.90
22185;DHT22;11258;52.516;13.318;2022-12-07T07:33:46;3.80;99.90
22185;DHT22;11258;52.516;13.318;2022-12-07T07:36:12;3.80;99.90
22185;DHT22;11258;52.516;13.318;2022-12-07T07:38:37;3.80;99.90
22185;DHT22;11258;52.516;13.318;2022-12-07T07:41:03;3.80;99.90
22185;DHT22;11258;52.516;13.318;2022-12-07T07:43:29;3.80;99.90
22185;DHT22;11258;52.516;13.318;2022-12-07T07:45:54;3.80;99.90
22185;DHT22;11258;52.516;13.318;2022-12-07T07:48:20;3.80;99.90
22185;DHT22;11258;52.516;13.318;2022-12-07T07:50:48;3.80;99.90
22185;DHT22;11258;52.516;13.318;2022-12-07T07:53:13;3.90;99.90
22185;DHT22;11258;52.516;13.318;2022-12-07T07:55:39;3.90;99.90
22185;DHT22;11258;52.516;13.318;2022-12-07T07:58:05;3.90;99.90
22185;DHT22;11258;52.516;13.318;2022-12-07T08:00:30;3.90;99.90
22185;DHT22;11258;52.516;13.318;2022-12-07T08:02:56;3.90;99.90
22185;DHT22;11258;52.516;13.318;2022-12-07T08:05:21;3.90;99.90
22185;DHT22;11258;52.516;13.318;2022-12-07T08:07:47;4.00;99.90
22185;DHT22;11258;52.516;13.318;2022-12-07T08:10:13;4.00;99.90
22185;DHT22;11258;52.516;13.318;2022-12-07T08:12:40;4.00;99.90
22185;DHT22;11258;52.516;13.318;2022-12-07T08:15:29;4.00;99.90
22185;DHT22;11258;52.516;13.318;2022-12-07T08:17:54;4.00;99.90
22185;DHT22;11258;52.516;13.318;2022-12-07T08:20:20;4.00;99.90
22185;DHT22;11258;52.516;13.318;2022-12-07T08:22:46;4.00;99.90
22185;DHT22;11258;52.516;13.318;2022-12-07T08:25:12;4.00;99.90
22185;DHT22;11258;52.516;13.318;2022-12-07T08:27:37;4.10;99.90
22185;DHT22;11258;52.516;13.318;2022-12-07T08:30:03;4.10;99.90
22185;DHT22;11258;52.516;13.318;2022-12-07T08:32:29;4.10;99.90
22185;DHT22;11258;52.516;13.318;2022-12-07T08:34:55;4.10;99.90
22185;DHT22;11258;52.516;13.318;2022-12-07T08:37:20;4.10;99.90
22185;DHT22;11258;52.516;13.318;2022-12-07T08:39:46;4.10;99.90
22185;DHT22;11258;52.516;13.318;2022-12-07T08:42:12;4.00;99.90
22185;DHT22;11258;52.516;13.318;2022-12-07T08:44:37;4.10;99.90
22185;DHT22;11258;52.516;13.318;2022-12-07T08:47:05;4.10;99.90
22185;DHT22;11258;52.516;13.318;2022-12-07T08:49:38;4.10;99.90
22185;DHT22;11258;52.516;13.318;2022-12-07T08:52:05;4.10;99.90
22185;DHT22;11258;52.516;13.318;2022-12-07T08:54:33;4.20;99.90
22185;DHT22;11258;52.516;13.318;2022-12-07T08:56:59;4.10;99.90
22185;DHT22;11258;52.516;13.318;2022-12-07T08:59:26;4.10;99.90
22185;DHT22;11258;52.516;13.318;2022-12-07T09:01:52;4.10;99.90
22185;DHT22;11258;52.516;13.318;2022-12-07T09:04:18;4.10;99.90
22185;DHT22;11258;52.516;13.318;2022-12-07T09:06:43;4.20;99.90
22185;DHT22;11258;52.516;13.318;2022-12-07T09:09:10;4.20;99.90
22185;DHT22;11258;52.516;13.318;2022-12-07T09:11:36;4.20;99.90
22185;DHT22;11258;52.516;13.318;2022-12-07T09:14:02;4.20;99.90
22185;DHT22;11258;52.516;13.318;2022-12-07T09:16:28;4.20;99.90
22185;DHT22;11258;52.516;13.318;2022-12-07T09:18:53;4.10;99.90
22185;DHT22;11258;52.516;13.318;2022-12-07T09:21:19;4.00;99.90
22185;DHT22;11258;52.516;13.318;2022-12-07T09:23:45;4.00;99.90
22185;DHT22;11258;52.516;13.318;2022-12-07T09:26:10;4.00;99.90
22185;DHT22;11258;52.516;13.318;2022-12-07T09:28:36;4.00;99.90
22185;DHT22;11258;52.516;13.318;2022-12-07T09:31:03;4.10;99.90
22185;DHT22;11258;52.516;13.318;2022-12-07T09:33:29;4.10;99.90
22185;DHT22;11258;52.516;13.318;2022-12-07T09:35:54;4.10;99.90
22185;DHT22;11258;52.516;13.318;2022-12-07T09:38:20;4.00;99.90
22185;DHT22;11258;52.516;13.318;2022-12-07T09:40:46;4.10;99.90
22185;DHT22;11258;52.516;13.318;2022-12-07T09:43:20;4.00;99.90
22185;DHT22;11258;52.516;13.318;2022-12-07T09:45:49;3.90;99.90
22185;DHT22;11258;52.516;13.318;2022-12-07T09:48:23;4.00;99.90
22185;DHT22;11258;52.516;13.318;2022-12-07T09:50:51;4.00;99.90
22185;DHT22;11258;52.516;13.318;2022-12-07T09:53:32;4.00;99.90
22185;DHT22;11258;52.516;13.318;2022-12-07T09:55:59;3.90;99.90
22185;DHT22;11258;52.516;13.318;2022-12-07T09:58:28;3.90;99.90
22185;DHT22;11258;52.516;13.318;2022-12-07T10:00:57;3.90;99.90
22185;DHT22;11258;52.516;13.318;2022-12-07T10:03:25;3.90;99.90
22185;DHT22;11258;52.516;13.318;2022-12-07T10:05:52;3.90;99.90
22185;DHT22;11258;52.516;13.318;2022-12-07T10:08:18;3.90;99.90
22185;DHT22;11258;52.516;13.318;2022-12-07T10:10:50;3.90;99.90
22185;DHT22;11258;52.516;13.318;2022-12-07T10:13:21;3.90;99.90
22185;DHT22;11258;52.516;13.318;2022-12-07T10:15:56;3.90;99.90
22185;DHT22;11258;52.516;13.318;2022-12-07T10:18:35;3.90;99.90
22185;DHT22;11258;52.516;13.318;2022-12-07T10:26:38;3.90;99.90
22185;DHT22;11258;52.516;13.318;2022-12-07T10:31:40;3.90;99.90
22185;DHT22;11258;52.516;13.318;2022-12-07T10:34:22;3.90;99.90
22185;DHT22;11258;52.516;13.318;2022-12-07T10:36:50;3.90;99.90
22185;DHT22;11258;52.516;13.318;2022-12-07T10:39:25;3.90;99.90
22185;DHT22;11258;52.516;13.318;2022-12-07T10:42:01;3.90;99.90
22185;DHT22;11258;52.516;13.318;2022-12-07T10:44:31;3.90;99.90
22185;DHT22;11258;52.516;13.318;2022-12-07T10:50:12;4.00;99.90
22185;DHT22;11258;52.516;13.318;2022-12-07T11:01:43;4.10;99.90
22185;DHT22;11258;52.516;13.318;2022-12-07T11:04:24;4.10;99.90
22185;DHT22;11258;52.516;13.318;2022-12-07T11:28:50;4.30;99.90
22185;DHT22;11258;52.516;13.318;2022-12-07T11:31:35;4.30;99.90
22185;DHT22;11258;52.516;13.318;2022-12-07T11:34:57;4.30;99.90
22185;DHT22;11258;52.516;13.318;2022-12-07T11:37:06;4.30;99.90
22185;DHT22;11258;52.516;13.318;2022-12-07T11:39:51;4.30;99.90
22185;DHT22;11258;52.516;13.318;2022-12-07T11:42:44;4.40;99.90
22185;DHT22;11258;52.516;13.318;2022-12-07T11:45:29;4.30;99.90
22185;DHT22;11258;52.516;13.318;2022-12-07T11:48:12;4.40;99.90
22185;DHT22;11258;52.516;13.318;2022-12-07T11:58:41;4.40;99.90
22185;DHT22;11258;52.516;13.318;2022-12-07T12:03:47;4.40;99.90
22185;DHT22;11258;52.516;13.318;2022-12-07T12:06:13;4.50;99.90
22185;DHT22;11258;52.516;13.318;2022-12-07T12:08:50;4.50;99.90
22185;DHT22;11258;52.516;13.318;2022-12-07T12:14:35;4.50;99.90
22185;DHT22;11258;52.516;13.318;2022-12-07T12:22:40;4.60;99.90
22185;DHT22;11258;52.516;13.318;2022-12-07T12:25:20;4.60;99.90
22185;DHT22;11258;52.516;13.318;2022-12-07T12:27:48;4.60;99.90
22185;DHT22;11258;52.516;13.318;2022-12-07T12:30:37;4.60;99.90
22185;DHT22;11258;52.516;13.318;2022-12-07T12:33:14;4.60;99.90
22185;DHT22;11258;52.516;13.318;2022-12-07T12:35:43;4.50;99.90
22185;DHT22;11258;52.516;13.318;2022-12-07T12:38:30;4.60;99.90
22185;DHT22;11258;52.516;13.318;2022-12-07T12:40:56;4.70;99.90
22185;DHT22;11258;52.516;13.318;2022-12-07T12:43:48;4.60;99.90
22185;DHT22;11258;52.516;13.318;2022-12-07T12:51:46;4.60;99.90
22185;DHT22;11258;52.516;13.318;2022-12-07T12:54:32;4.60;99.90
22185;DHT22;11258;52.516;13.318;2022-12-07T13:02:34;4.60;99.90
22185;DHT22;11258;52.516;13.318;2022-12-07T13:05:25;4.60;99.90
22185;DHT22;11258;52.516;13.318;2022-12-07T13:08:05;4.70;99.90
22185;DHT22;11258;52.516;13.318;2022-12-07T13:10:41;4.70;99.90
22185;DHT22;11258;52.516;13.318;2022-12-07T13:15:45;4.70;99.90
22185;DHT22;11258;52.516;13.318;2022-12-07T13:18:43;4.80;99.90
22185;DHT22;11258;52.516;13.318;2022-12-07T13:31:45;4.70;99.90
22185;DHT22;11258;52.516;13.318;2022-12-07T13:36:53;4.70;99.90
22185;DHT22;11258;52.516;13.318;2022-12-07T13:39:21;4.70;99.90
22185;DHT22;11258;52.516;13.318;2022-12-07T13:41:53;4.70;99.90
22185;DHT22;11258;52.516;13.318;2022-12-07T13:44:20;4.70;99.90
22185;DHT22;11258;52.516;13.318;2022-12-07T13:47:06;4.70;99.90
22185;DHT22;11258;52.516;13.318;2022-12-07T13:49:51;4.70;99.90
22185;DHT22;11258;52.516;13.318;2022-12-07T13:52:24;4.70;99.90
22185;DHT22;11258;52.516;13.318;2022-12-07T13:57:34;4.70;99.90
22185;DHT22;11258;52.516;13.318;2022-12-07T14:00:06;4.60;99.90
22185;DHT22;11258;52.516;13.318;2022-12-07T14:05:33;4.60;99.90
22185;DHT22;11258;52.516;13.318;2022-12-07T14:08:01;4.70;99.90
22185;DHT22;11258;52.516;13.318;2022-12-07T14:10:56;4.60;99.90
22185;DHT22;11258;52.516;13.318;2022-12-07T14:13:38;4.60;99.90
22185;DHT22;11258;52.516;13.318;2022-12-07T14:16:30;4.60;99.90
22185;DHT22;11258;52.516;13.318;2022-12-07T14:18:58;4.60;99.90
22185;DHT22;11258;52.516;13.318;2022-12-07T14:21:27;4.60;99.90
22185;DHT22;11258;52.516;13.318;2022-12-07T14:26:39;4.60;99.90
22185;DHT22;11258;52.516;13.318;2022-12-07T14:31:51;4.60;99.90
22185;DHT22;11258;52.516;13.318;2022-12-07T14:34:16;4.50;99.90
22185;DHT22;11258;52.516;13.318;2022-12-07T14:36:42;4.60;99.90
22185;DHT22;11258;52.516;13.318;2022-12-07T14:39:08;4.50;99.90
22185;DHT22;11258;52.516;13.318;2022-12-07T14:41:33;4.50;99.90
22185;DHT22;11258;52.516;13.318;2022-12-07T14:44:19;4.50;99.90
22185;DHT22;11258;52.516;13.318;2022-12-07T14:46:45;4.40;99.90
22185;DHT22;11258;52.516;13.318;2022-12-07T14:49:11;4.30;99.90
22185;DHT22;11258;52.516;13.318;2022-12-07T14:51:39;4.40;99.90
22185;DHT22;11258;52.516;13.318;2022-12-07T14:54:07;4.30;99.90
22185;DHT22;11258;52.516;13.318;2022-12-07T14:56:37;4.30;99.90
22185;DHT22;11258;52.516;13.318;2022-12-07T14:59:02;4.20;99.90
22185;DHT22;11258;52.516;13.318;2022-12-07T15:01:28;4.20;99.90
22185;DHT22;11258;52.516;13.318;2022-12-07T15:03:53;4.20;99.90
22185;DHT22;11258;52.516;13.318;2022-12-07T15:06:19;4.20;99.90
22185;DHT22;11258;52.516;13.318;2022-12-07T15:08:45;4.10;99.90
22185;DHT22;11258;52.516;13.318;2022-12-07T15:11:15;4.10;99.90
22185;DHT22;11258;52.516;13.318;2022-12-07T15:13:41;4.10;99.90
22185;DHT22;11258;52.516;13.318;2022-12-07T15:16:25;4.00;99.90
22185;DHT22;11258;52.516;13.318;2022-12-07T15:18:51;4.00;99.90
22185;DHT22;11258;52.516;13.318;2022-12-07T15:21:17;4.00;99.90
22185;DHT22;11258;52.516;13.318;2022-12-07T15:23:43;3.90;99.90
22185;DHT22;11258;52.516;13.318;2022-12-07T15:26:10;3.90;99.90
22185;DHT22;11258;52.516;13.318;2022-12-07T15:28:36;3.90;99.90
22185;DHT22;11258;52.516;13.318;2022-12-07T15:31:01;3.90;99.90
22185;DHT22;11258;52.516;13.318;2022-12-07T15:33:27;3.90;99.90
22185;DHT22;11258;52.516;13.318;2022-12-07T15:35:52;3.90;99.90
22185;DHT22;11258;52.516;13.318;2022-12-07T15:38:18;4.00;99.90
22185;DHT22;11258;52.516;13.318;2022-12-07T15:40:47;4.00;99.90
22185;DHT22;11258;52.516;13.318;2022-12-07T15:43:12;4.00;99.90
22185;DHT22;11258;52.516;13.318;2022-12-07T15:45:57;4.00;99.90
22185;DHT22;11258;52.516;13.318;2022-12-07T15:48:23;4.00;99.90
22185;DHT22;11258;52.516;13.318;2022-12-07T15:50:48;4.00;99.90
22185;DHT22;11258;52.516;13.318;2022-12-07T15:53:14;4.00;99.90
22185;DHT22;11258;52.516;13.318;2022-12-07T15:55:40;4.00;99.90
22185;DHT22;11258;52.516;13.318;2022-12-07T15:58:06;4.00;99.90
22185;DHT22;11258;52.516;13.318;2022-12-07T16:00:32;4.00;99.90
22185;DHT22;11258;52.516;13.318;2022-12-07T16:02:58;4.00;99.90
22185;DHT22;11258;52.516;13.318;2022-12-07T16:05:24;4.10;99.90
22185;DHT22;11258;52.516;13.318;2022-12-07T16:07:49;4.00;99.90
22185;DHT22;11258;52.516;13.318;2022-12-07T16:10:15;4.00;99.90
22185;DHT22;11258;52.516;13.318;2022-12-07T16:12:40;3.90;99.90
22185;DHT22;11258;52.516;13.318;2022-12-07T16:15:06;3.80;99.90
22185;DHT22;11258;52.516;13.318;2022-12-07T16:17:32;3.80;99.90
22185;DHT22;11258;52.516;13.318;2022-12-07T16:19:58;3.80;99.90
22185;DHT22;11258;52.516;13.318;2022-12-07T16:22:23;3.80;99.90
22185;DHT22;11258;52.516;13.318;2022-12-07T16:24:49;3.70;99.90
22185;DHT22;11258;52.516;13.318;2022-12-07T16:27:15;3.70;99.90
22185;DHT22;11258;52.516;13.318;2022-12-07T16:29:40;3.60;99.90
22185;DHT22;11258;52.516;13.318;2022-12-07T16:32:06;3.60;99.90
22185;DHT22;11258;52.516;13.318;2022-12-07T16:34:32;3.60;99.90
22185;DHT22;11258;52.516;13.318;2022-12-07T16:36:57;3.60;99.90
22185;DHT22;11258;52.516;13.318;2022-12-07T16:39:23;3.60;99.90
22185;DHT22;11258;52.516;13.318;2022-12-07T16:41:50;3.60;99.90
22185;DHT22;11258;52.516;13.318;2022-12-07T16:44:15;3.60;99.90
22185;DHT22;11258;52.516;13.318;2022-12-07T16:46:42;3.50;99.90
22185;DHT22;11258;52.516;13.318;2022-12-07T16:49:14;3.50;99.90
22185;DHT22;11258;52.516;13.318;2022-12-07T16:51:41;3.50;99.90
22185;DHT22;11258;52.516;13.318;2022-12-07T16:54:10;3.50;99.90
22185;DHT22;11258;52.516;13.318;2022-12-07T16:56:35;3.50;99.90
22185;DHT22;11258;52.516;13.318;2022-12-07T16:59:01;3.40;99.90
22185;DHT22;11258;52.516;13.318;2022-12-07T17:01:26;3.40;99.90
22185;DHT22;11258;52.516;13.318;2022-12-07T17:03:53;3.40;99.90
22185;DHT22;11258;52.516;13.318;2022-12-07T17:06:22;3.40;99.90
22185;DHT22;11258;52.516;13.318;2022-12-07T17:08:49;3.40;99.90
22185;DHT22;11258;52.516;13.318;2022-12-07T17:11:23;3.40;99.90
22185;DHT22;11258;52.516;13.318;2022-12-07T17:13:50;3.30;99.90
22185;DHT22;11258;52.516;13.318;2022-12-07T17:16:34;3.30;99.90
22185;DHT22;11258;52.516;13.318;2022-12-07T17:19:06;3.40;99.90
22185;DHT22;11258;52.516;13.318;2022-12-07T17:21:32;3.40;99.90
22185;DHT22;11258;52.516;13.318;2022-12-07T17:23:59;3.30;99.90
22185;DHT22;11258;52.516;13.318;2022-12-07T17:26:26;3.30;99.90
22185;DHT22;11258;52.516;13.318;2022-12-07T17:28:52;3.20;99.90
22185;DHT22;11258;52.516;13.318;2022-12-07T17:31:20;3.20;99.90
22185;DHT22;11258;52.516;13.318;2022-12-07T17:33:46;3.20;99.90
22185;DHT22;11258;52.516;13.318;2022-12-07T17:36:14;3.20;99.90
22185;DHT22;11258;52.516;13.318;2022-12-07T17:38:41;3.10;99.90
22185;DHT22;11258;52.516;13.318;2022-12-07T17:44:00;3.10;99.90
22185;DHT22;11258;52.516;13.318;2022-12-07T17:46:26;3.10;99.90
22185;DHT22;11258;52.516;13.318;2022-12-07T17:48:54;3.10;99.90
22185;DHT22;11258;52.516;13.318;2022-12-07T17:51:19;3.10;99.90
22185;DHT22;11258;52.516;13.318;2022-12-07T17:54:04;3.00;99.90
22185;DHT22;11258;52.516;13.318;2022-12-07T17:56:29;3.10;99.90